Airport Name : Aswan Intl

Other Name : Aswan Intl

ICAO : HESN

IATA : ASW

FAA :

Latitude : 23.964356

Longitude : 32.819975

Country : Egypt

Local Date and Time : 19 Jan 2021 17:50

 

TAF (Terminal Aerodrome Forecast)

TAF HESN 191100Z 1912/2018 02008KT CAVOK

 

METAR (METeorological Aerodrome Report)

To Charter a Jet Click here.